createdAt,value
2018-06-19T00:01:40.478Z,25.10
2018-06-19T00:04:09.546Z,25.20
2018-06-19T00:06:38.645Z,25.20
2018-06-19T00:09:08.792Z,25.20
2018-06-19T00:11:37.933Z,25.20
2018-06-19T00:14:07.037Z,25.30
2018-06-19T00:16:36.122Z,25.50
2018-06-19T00:19:06.269Z,25.40
2018-06-19T00:21:48.886Z,25.30
2018-06-19T00:24:17.969Z,25.30
2018-06-19T00:26:47.045Z,25.20
2018-06-19T00:29:16.245Z,25.40
2018-06-19T00:31:45.316Z,25.20
2018-06-19T00:34:14.410Z,24.70
2018-06-19T00:36:43.538Z,25.10
2018-06-19T00:39:13.285Z,25.50
2018-06-19T00:41:42.693Z,25.40
2018-06-19T00:44:12.177Z,25.40
2018-06-19T00:46:45.905Z,25.80
2018-06-19T00:49:15.034Z,25.80
2018-06-19T00:51:44.133Z,26.00
2018-06-19T00:54:13.205Z,26.00
2018-06-19T00:56:53.149Z,26.30
2018-06-19T00:59:22.222Z,26.50
2018-06-19T01:01:51.801Z,26.50
2018-06-19T01:04:20.887Z,26.90
2018-06-19T01:06:50.018Z,26.90
2018-06-19T01:09:19.146Z,27.20
2018-06-19T01:11:48.266Z,27.10
2018-06-19T01:14:17.326Z,27.30
2018-06-19T01:16:46.429Z,27.60
2018-06-19T01:19:15.526Z,27.70
2018-06-19T01:21:44.642Z,27.70
2018-06-19T01:24:13.713Z,27.80
2018-06-19T01:26:42.793Z,27.70
2018-06-19T01:29:11.865Z,28.20
2018-06-19T01:31:40.969Z,28.40
2018-06-19T01:34:10.081Z,28.60
2018-06-19T01:36:39.161Z,28.70
2018-06-19T01:39:10.169Z,29.00
2018-06-19T01:41:39.298Z,29.10
2018-06-19T01:44:08.566Z,29.50
2018-06-19T01:46:37.687Z,29.50
2018-06-19T01:49:06.769Z,29.70
2018-06-19T01:51:36.103Z,29.50
2018-06-19T01:54:05.229Z,29.20
2018-06-19T01:56:34.298Z,29.00
2018-06-19T01:59:03.389Z,29.00
2018-06-19T02:01:32.477Z,28.80
2018-06-19T02:04:01.570Z,28.80
2018-06-19T02:06:30.662Z,28.70
2018-06-19T02:08:59.773Z,29.00
2018-06-19T02:11:29.449Z,29.10
2018-06-19T02:13:58.542Z,29.30
2018-06-19T02:16:27.658Z,29.70
2018-06-19T02:18:56.738Z,30.00
2018-06-19T02:21:25.804Z,30.20
2018-06-19T02:23:54.917Z,30.60
2018-06-19T02:26:23.991Z,31.00
2018-06-19T02:28:53.067Z,31.40
2018-06-19T02:31:22.158Z,31.70
2018-06-19T02:33:51.234Z,31.80
2018-06-19T02:36:20.333Z,32.10
2018-06-19T02:38:49.414Z,32.70
2018-06-19T02:41:18.495Z,33.00
2018-06-19T02:43:47.576Z,33.20
2018-06-19T02:46:16.723Z,33.30
2018-06-19T02:48:45.833Z,33.50
2018-06-19T02:51:14.901Z,34.20
2018-06-19T02:53:44.070Z,34.80
2018-06-19T02:56:13.194Z,34.80
2018-06-19T02:58:42.426Z,34.80
2018-06-19T03:01:11.510Z,34.80
2018-06-19T03:03:40.594Z,34.80
2018-06-19T03:06:09.691Z,34.80
2018-06-19T03:08:38.777Z,34.80
2018-06-19T03:11:07.850Z,34.90
2018-06-19T03:13:36.930Z,34.60
2018-06-19T03:16:06.173Z,34.90
2018-06-19T03:18:35.289Z,34.90
2018-06-19T03:21:04.373Z,34.90
2018-06-19T03:23:33.441Z,34.80
2018-06-19T03:26:02.527Z,35.00
2018-06-19T03:28:31.706Z,35.00
2018-06-19T03:31:00.798Z,34.40
2018-06-19T03:33:29.890Z,33.90
2018-06-19T03:35:58.982Z,33.60
2018-06-19T03:38:28.061Z,34.30
2018-06-19T03:40:57.150Z,34.90
2018-06-19T03:43:26.262Z,34.60
2018-06-19T03:45:55.381Z,34.40
2018-06-19T03:48:24.474Z,34.10
2018-06-19T03:50:53.574Z,34.10
2018-06-19T03:53:22.710Z,33.90
2018-06-19T03:55:51.786Z,34.10
2018-06-19T03:58:20.906Z,34.00
2018-06-19T04:00:50.008Z,33.70
2018-06-19T04:03:19.093Z,33.60
2018-06-19T04:05:48.210Z,33.70
2018-06-19T04:08:17.359Z,33.90
2018-06-19T04:10:46.453Z,33.70
2018-06-19T04:13:15.669Z,34.90
2018-06-19T04:15:44.786Z,35.80
2018-06-19T04:18:13.873Z,35.90
2018-06-19T04:20:42.965Z,36.00
2018-06-19T04:23:12.054Z,37.10
2018-06-19T04:25:41.145Z,37.20
2018-06-19T04:28:10.217Z,36.90
2018-06-19T04:30:39.332Z,37.30
2018-06-19T04:33:08.417Z,37.40
2018-06-19T04:35:37.517Z,37.20
2018-06-19T04:38:06.601Z,37.30
2018-06-19T04:40:35.702Z,35.90
2018-06-19T04:43:05.161Z,36.00
2018-06-19T04:45:34.734Z,36.50
2018-06-19T04:48:04.447Z,36.50
2018-06-19T04:50:33.545Z,36.90
2018-06-19T04:53:02.654Z,36.20
2018-06-19T04:55:31.723Z,36.60
2018-06-19T04:58:00.838Z,37.50
2018-06-19T05:00:29.933Z,36.70
2018-06-19T05:02:59.030Z,36.80
2018-06-19T05:05:28.093Z,37.20
2018-06-19T05:07:57.191Z,35.80
2018-06-19T05:10:26.266Z,35.80
2018-06-19T05:12:55.477Z,36.00
2018-06-19T05:15:24.518Z,36.00
2018-06-19T05:17:53.650Z,34.30
2018-06-19T05:20:22.741Z,33.80
2018-06-19T05:22:52.030Z,32.70
2018-06-19T05:25:21.721Z,33.00
2018-06-19T05:27:51.186Z,32.90
2018-06-19T05:30:21.318Z,32.10
2018-06-19T05:32:50.482Z,31.80
2018-06-19T05:35:19.603Z,31.00
2018-06-19T05:37:48.687Z,30.50
2018-06-19T05:40:17.766Z,29.20
2018-06-19T05:42:46.852Z,30.00
2018-06-19T05:45:15.964Z,29.70
2018-06-19T05:47:45.051Z,30.40
2018-06-19T05:50:14.446Z,28.50
2018-06-19T05:52:43.556Z,27.20
2018-06-19T05:55:12.637Z,26.70
2018-06-19T05:57:41.735Z,26.20
2018-06-19T06:00:10.812Z,25.50
2018-06-19T06:02:39.974Z,25.50
2018-06-19T06:05:09.042Z,25.80
2018-06-19T06:07:38.146Z,26.90
2018-06-19T06:10:07.285Z,27.10
2018-06-19T06:12:37.185Z,28.30
2018-06-19T06:15:06.279Z,26.50
2018-06-19T06:17:35.347Z,26.70
2018-06-19T06:20:05.009Z,25.60
2018-06-19T06:22:34.097Z,26.00
2018-06-19T06:25:03.205Z,25.50
2018-06-19T06:27:32.309Z,25.60
2018-06-19T06:30:01.379Z,25.50
2018-06-19T06:32:30.516Z,25.40
2018-06-19T06:34:59.606Z,25.30
2018-06-19T06:37:28.702Z,25.40
2018-06-19T06:39:57.787Z,24.40
2018-06-19T06:42:26.993Z,24.50
2018-06-19T06:44:56.066Z,24.00
2018-06-19T06:47:25.141Z,23.80
2018-06-19T06:49:54.232Z,22.50
2018-06-19T06:52:23.301Z,20.50
2018-06-19T06:54:52.416Z,20.30
2018-06-19T06:57:21.519Z,20.30
2018-06-19T06:59:50.614Z,20.50
2018-06-19T07:02:19.725Z,20.80
2018-06-19T07:04:48.813Z,21.00
2018-06-19T07:07:17.893Z,20.90
2018-06-19T07:09:47.185Z,20.30
2018-06-19T07:12:16.261Z,20.60
2018-06-19T07:14:45.372Z,21.50
2018-06-19T07:17:14.466Z,21.10
2018-06-19T07:19:43.607Z,20.40
2018-06-19T07:22:12.694Z,20.30
2018-06-19T07:24:41.762Z,20.60
2018-06-19T07:27:10.870Z,20.90
2018-06-19T07:29:39.957Z,20.80
2018-06-19T07:32:09.052Z,19.90
2018-06-19T07:34:38.138Z,19.90
2018-06-19T07:37:07.322Z,20.30
2018-06-19T07:39:36.446Z,20.80
2018-06-19T07:42:05.664Z,20.50
2018-06-19T07:44:34.741Z,19.70
2018-06-19T07:47:03.812Z,19.20
2018-06-19T07:49:32.996Z,19.10
2018-06-19T07:52:02.042Z,19.20
2018-06-19T07:54:31.149Z,18.80
2018-06-19T07:57:00.224Z,18.80
2018-06-19T07:59:29.373Z,18.80
2018-06-19T08:01:58.550Z,18.30
2018-06-19T08:04:27.732Z,17.50
2018-06-19T08:06:56.885Z,17.90
2018-06-19T08:09:26.049Z,17.10
2018-06-19T08:11:55.203Z,18.30
2018-06-19T08:14:25.250Z,17.30
2018-06-19T08:16:54.392Z,17.40
2018-06-19T08:19:23.601Z,17.30
2018-06-19T08:21:52.732Z,17.50
2018-06-19T08:24:21.904Z,17.70
2018-06-19T08:26:51.110Z,16.80
2018-06-19T08:29:20.234Z,17.10
2018-06-19T08:31:49.340Z,17.00
2018-06-19T08:34:18.521Z,16.80
2018-06-19T08:36:47.651Z,17.30
2018-06-19T08:39:16.855Z,17.20
2018-06-19T08:41:46.007Z,16.10
2018-06-19T08:44:15.240Z,16.10
2018-06-19T08:46:44.445Z,16.20
2018-06-19T08:49:13.766Z,16.30
2018-06-19T08:51:42.917Z,16.40
2018-06-19T08:54:12.082Z,16.40
2018-06-19T08:56:41.213Z,16.40
2018-06-19T08:59:10.338Z,16.40
2018-06-19T09:01:39.491Z,16.50
2018-06-19T09:04:08.727Z,15.80
2018-06-19T09:06:37.914Z,15.60
2018-06-19T09:09:10.010Z,15.90
2018-06-19T09:11:39.512Z,15.20
2018-06-19T09:14:08.609Z,14.80
2018-06-19T09:16:37.845Z,14.10
2018-06-19T09:21:35.997Z,14.30
2018-06-19T09:24:05.501Z,13.00
2018-06-19T09:26:34.685Z,13.20
2018-06-19T09:29:03.842Z,13.30
2018-06-19T09:31:33.052Z,13.30
2018-06-19T09:34:02.225Z,12.50
2018-06-19T09:36:31.361Z,13.00
2018-06-19T09:39:00.493Z,13.10
2018-06-19T09:41:29.610Z,12.60
2018-06-19T09:43:58.766Z,11.90
2018-06-19T09:46:27.902Z,11.20
2018-06-19T09:48:57.314Z,10.60
2018-06-19T09:51:26.526Z,9.70
2018-06-19T09:53:55.759Z,9.20
2018-06-19T09:56:24.927Z,8.40
2018-06-19T09:58:54.001Z,8.60
2018-06-19T10:01:23.190Z,8.70
2018-06-19T10:03:52.397Z,7.60
2018-06-19T10:06:21.534Z,7.90
2018-06-19T10:08:50.694Z,8.70
2018-06-19T10:11:19.871Z,7.60
2018-06-19T10:13:49.017Z,7.50
2018-06-19T10:16:18.171Z,7.50
2018-06-19T10:18:47.367Z,6.70
2018-06-19T10:21:16.551Z,5.80
2018-06-19T10:23:45.731Z,6.30
2018-06-19T10:26:15.142Z,5.70
2018-06-19T10:28:44.257Z,5.70
2018-06-19T10:31:13.425Z,5.20
2018-06-19T10:33:42.577Z,4.90
2018-06-19T10:36:11.701Z,5.60
2018-06-19T10:38:40.836Z,6.40
2018-06-19T10:41:10.008Z,5.60
2018-06-19T10:43:39.215Z,6.00
2018-06-19T10:46:08.342Z,6.90
2018-06-19T10:48:37.489Z,6.40
2018-06-19T10:51:06.727Z,6.50
2018-06-19T10:53:35.865Z,6.50
2018-06-19T10:56:04.982Z,6.80
2018-06-19T10:58:34.067Z,6.50
2018-06-19T11:01:03.219Z,7.10
2018-06-19T11:03:32.409Z,7.20
2018-06-19T11:06:01.539Z,6.90
2018-06-19T11:08:30.643Z,6.80
2018-06-19T11:10:59.806Z,7.10
2018-06-19T11:13:28.958Z,7.10
2018-06-19T11:15:58.135Z,6.70
2018-06-19T11:18:27.339Z,6.60
